Glenshee, United Kingdom
Current Conditions -  °F | °C
As of 8:20 PM on Monday 20 Oct 2014 (Local Time) from EGPN Reporting Station
Broken Clouds Broken Clouds  
Wind Chill: 54°   Ceiling: 3500
Heat Index: 54°   Visibility: 6mi
Dew Point: 48°   Wind: 15mph
Humidity: 82%   Direction: 210°SSW
Pressure: 29.56"   Gusts: NA
Location:  56.81°N, 3.46°W
Report Text: EGPN 201920Z 21013KT 9999 FEW023 BKN035 12/09 Q1001
Loading
Personal Weather Stations






























Interactive Weather Map
Tropical Storm Tracking
New forecast layout! Learn more

10-Day Weather Forecast

Advertisements
Track Severe Weather on mobile